Time;durP1;ratioP1;P1;durP2;ratioP2;P2;SDS_P1;SDS_P2;PMS_P1;PMS_P2;Temp;Humidity;BMP_temperature;BMP_pressure;BME280_temperature;BME280_humidity;BME280_pressure;Samples;Min_cycle;Max_cycle;Signal;HPM_P1;HPM_P2
2022/10/29 00:00:38;;;;;;;41.08;8.73;;;;;;;;;;4926365;29;20055;-69
2022/10/29 00:03:05;;;;;;;38.10;9.20;;;;;;;;;;4946854;28;20051;-69
2022/10/29 00:05:34;;;;;;;40.08;9.25;;;;;;;;;;4927937;29;20062;-69
2022/10/29 00:08:01;;;;;;;43.25;9.60;;;;;;;;;;4930398;29;20065;-70
2022/10/29 00:10:29;;;;;;;92.90;10.93;;;;;;;;;;4929281;29;20510;-69
2022/10/29 00:12:56;;;;;;;147.15;11.68;;;;;;;;;;4943191;29;20062;-70
2022/10/29 00:15:23;;;;;;;50.92;8.07;;;;;;;;;;4925056;29;20451;-70
2022/10/29 00:17:51;;;;;;;80.18;8.45;;;;;;;;;;4916453;29;20044;-69
2022/10/29 00:20:19;;;;;;;49.42;6.80;;;;;;;;;;4922355;29;20160;-69
2022/10/29 00:22:48;;;;;;;39.72;6.43;;;;;;;;;;4923844;29;20062;-68
2022/10/29 00:25:15;;;;;;;33.60;7.45;;;;;;;;;;4923860;29;20063;-69
2022/10/29 00:27:42;;;;;;;24.25;6.63;;;;;;;;;;4925344;29;20062;-70
2022/10/29 00:30:10;;;;;;;29.52;6.40;;;;;;;;;;4920573;29;20059;-70
2022/10/29 00:32:37;;;;;;;52.55;7.93;;;;;;;;;;4925572;29;21068;-70
2022/10/29 00:35:05;;;;;;;22.98;7.30;;;;;;;;;;4922594;29;20063;-70
2022/10/29 00:37:32;;;;;;;36.78;9.75;;;;;;;;;;4925826;29;20051;-71
2022/10/29 00:40:01;;;;;;;25.38;8.02;;;;;;;;;;4917665;29;20063;-69
2022/10/29 00:42:28;;;;;;;67.05;9.13;;;;;;;;;;4924516;29;20055;-70
2022/10/29 00:44:55;;;;;;;122.22;11.05;;;;;;;;;;4923869;29;20056;-70
2022/10/29 00:47:23;;;;;;;138.10;12.20;;;;;;;;;;4925734;29;20055;-69
2022/10/29 00:49:53;;;;;;;48.63;9.32;;;;;;;;;;4920205;29;20060;-70
2022/10/29 00:52:22;;;;;;;207.00;11.82;;;;;;;;;;4924973;29;20067;-70
2022/10/29 00:54:50;;;;;;;179.32;11.85;;;;;;;;;;4920665;29;20055;-71
2022/10/29 00:57:20;;;;;;;152.00;8.73;;;;;;;;;;4921671;29;20052;-69
2022/10/29 00:59:49;;;;;;;147.18;9.73;;;;;;;;;;4922865;29;20579;-69
2022/10/29 01:02:16;;;;;;;137.27;8.85;;;;;;;;;;4920956;29;20070;-69
2022/10/29 01:04:44;;;;;;;155.95;9.23;;;;;;;;;;4924913;29;20071;-69
2022/10/29 01:07:11;;;;;;;155.52;10.43;;;;;;;;;;4923637;29;20095;-69
2022/10/29 01:09:39;;;;;;;83.40;7.35;;;;;;;;;;4925630;29;20051;-69
2022/10/29 01:12:13;;;;;;;113.30;6.93;;;;;;;;;;4922821;29;20073;-71
2022/10/29 01:14:46;;;;;;;69.97;6.30;;;;;;;;;;4924871;29;20058;-69
2022/10/29 01:17:21;;;;;;;109.70;6.70;;;;;;;;;;4929646;29;20058;-69
2022/10/29 01:20:12;;;;;;;207.43;10.82;;;;;;;;;;4927929;29;20058;-69
2022/10/29 01:22:42;;;;;;;137.25;8.50;;;;;;;;;;4907419;29;20059;-70
2022/10/29 01:25:27;;;;;;;124.35;9.15;;;;;;;;;;4930298;29;20059;-69
2022/10/29 01:28:06;;;;;;;141.32;9.00;;;;;;;;;;4928023;29;20063;-69
2022/10/29 01:30:51;;;;;;;162.45;9.32;;;;;;;;;;4916072;29;20071;-70
2022/10/29 01:33:22;;;;;;;91.88;8.13;;;;;;;;;;4921597;29;20059;-69
2022/10/29 01:35:52;;;;;;;115.10;8.43;;;;;;;;;;4930762;29;20106;-69
2022/10/29 01:38:25;;;;;;;84.50;8.18;;;;;;;;;;4932964;29;20052;-69
2022/10/29 01:40:52;;;;;;;;;;;;;;;;;;4932190;29;20522;-70
2022/10/29 01:43:23;;;;;;;89.32;8.82;;;;;;;;;;4934500;29;19927;-68
2022/10/29 01:45:56;;;;;;;81.30;8.90;;;;;;;;;;4928581;29;20056;-69
2022/10/29 01:48:27;;;;;;;62.63;9.30;;;;;;;;;;4939022;29;20091;-70
2022/10/29 01:50:55;;;;;;;103.03;10.20;;;;;;;;;;4926309;29;20059;-69
2022/10/29 01:53:23;;;;;;;118.32;9.02;;;;;;;;;;4933987;29;20051;-69
2022/10/29 01:55:50;;;;;;;109.40;9.13;;;;;;;;;;4929808;29;20414;-68
2022/10/29 01:58:18;;;;;;;89.70;9.77;;;;;;;;;;4928847;29;20048;-69
2022/10/29 02:00:49;;;;;;;76.68;8.60;;;;;;;;;;4922781;29;20056;-69
2022/10/29 02:03:23;;;;;;;174.43;9.18;;;;;;;;;;4927781;29;20405;-69
2022/10/29 02:05:55;;;;;;;101.57;8.10;;;;;;;;;;4928380;29;20052;-69
2022/10/29 02:08:30;;;;;;;139.98;8.25;;;;;;;;;;4929567;29;20052;-70
2022/10/29 02:11:02;;;;;;;58.25;8.15;;;;;;;;;;4930497;29;20182;-69
2022/10/29 02:13:31;;;;;;;42.25;6.32;;;;;;;;;;4926147;29;20060;-69
2022/10/29 02:16:00;;;;;;;112.80;7.35;;;;;;;;;;4923929;29;20055;-69
2022/10/29 02:18:28;;;;;;;145.27;8.20;;;;;;;;;;4942355;29;20059;-70
2022/10/29 02:20:55;;;;;;;79.65;6.35;;;;;;;;;;4932446;29;20497;-69
2022/10/29 02:23:23;;;;;;;423.67;11.75;;;;;;;;;;4932121;29;20101;-69
2022/10/29 02:25:50;;;;;;;88.25;7.82;;;;;;;;;;4931947;29;20070;-69
2022/10/29 02:28:17;;;;;;;151.52;7.40;;;;;;;;;;4923689;29;20581;-69
2022/10/29 02:30:44;;;;;;;107.75;6.63;;;;;;;;;;4931132;29;20059;-68
2022/10/29 02:33:11;;;;;;;173.50;8.63;;;;;;;;;;4942271;29;20584;-69
2022/10/29 02:35:40;;;;;;;160.60;7.30;;;;;;;;;;4931946;29;20081;-70
2022/10/29 02:38:07;;;;;;;208.30;8.27;;;;;;;;;;4933028;29;20414;-69
2022/10/29 02:40:34;;;;;;;151.50;9.15;;;;;;;;;;4929905;29;20052;-70
2022/10/29 02:43:02;;;;;;;221.02;8.18;;;;;;;;;;4929268;29;20426;-68
2022/10/29 02:45:29;;;;;;;203.45;7.88;;;;;;;;;;4941479;29;20056;-70
2022/10/29 02:47:56;;;;;;;159.50;7.90;;;;;;;;;;4927949;29;20063;-69
2022/10/29 02:50:23;;;;;;;348.10;10.63;;;;;;;;;;4930151;29;20039;-69
2022/10/29 02:52:52;;;;;;;369.58;10.75;;;;;;;;;;4932085;29;20055;-69
2022/10/29 02:55:19;;;;;;;297.77;9.68;;;;;;;;;;4930142;29;20055;-70
2022/10/29 02:57:46;;;;;;;279.50;8.35;;;;;;;;;;4934503;29;20072;-69
2022/10/29 03:00:14;;;;;;;196.27;8.70;;;;;;;;;;4927498;29;20040;-70
2022/10/29 03:02:41;;;;;;;123.85;6.97;;;;;;;;;;4935183;29;20054;-69
2022/10/29 03:05:09;;;;;;;139.43;7.57;;;;;;;;;;4948200;29;20035;-69
2022/10/29 03:07:36;;;;;;;87.22;5.38;;;;;;;;;;4932085;29;20550;-69
2022/10/29 03:10:05;;;;;;;129.90;7.18;;;;;;;;;;4929866;29;20141;-69
2022/10/29 03:12:33;;;;;;;135.98;8.60;;;;;;;;;;4927074;29;20062;-70
2022/10/29 03:15:00;;;;;;;168.48;10.65;;;;;;;;;;4937232;29;20122;-69
2022/10/29 03:17:27;;;;;;;128.93;8.75;;;;;;;;;;4930562;29;20552;-69
2022/10/29 03:19:54;;;;;;;49.05;7.85;;;;;;;;;;4931059;29;20047;-69
2022/10/29 03:22:22;;;;;;;173.05;9.60;;;;;;;;;;4930719;29;20187;-70
2022/10/29 03:24:49;;;;;;;61.75;7.78;;;;;;;;;;4921099;29;20732;-69
2022/10/29 03:27:17;;;;;;;113.75;9.45;;;;;;;;;;4923582;29;20466;-69
2022/10/29 03:29:44;;;;;;;100.82;8.70;;;;;;;;;;4925752;29;20051;-70
2022/10/29 03:32:12;;;;;;;165.73;10.35;;;;;;;;;;4927095;29;20047;-69
2022/10/29 03:34:39;;;;;;;74.65;8.55;;;;;;;;;;4921860;29;20063;-69
2022/10/29 03:37:06;;;;;;;174.60;7.97;;;;;;;;;;4919279;29;20415;-69
2022/10/29 03:39:34;;;;;;;177.57;10.43;;;;;;;;;;4928174;29;20203;-69
2022/10/29 03:42:02;;;;;;;191.15;9.30;;;;;;;;;;4930868;29;20051;-68
2022/10/29 03:44:31;;;;;;;110.60;8.07;;;;;;;;;;4922282;29;20060;-69
2022/10/29 03:46:58;;;;;;;199.10;9.10;;;;;;;;;;4926729;29;20058;-69
2022/10/29 03:49:25;;;;;;;96.47;7.50;;;;;;;;;;4928175;29;20410;-69
2022/10/29 03:51:53;;;;;;;124.05;8.40;;;;;;;;;;4926308;29;20070;-69
2022/10/29 03:54:20;;;;;;;225.52;9.88;;;;;;;;;;4930845;29;20050;-69
2022/10/29 03:56:47;;;;;;;139.55;8.15;;;;;;;;;;4931798;29;20106;-72
2022/10/29 03:59:14;;;;;;;126.97;9.60;;;;;;;;;;4930187;29;20446;-70
2022/10/29 04:01:43;;;;;;;132.32;8.80;;;;;;;;;;4943445;28;20051;-69
2022/10/29 04:04:10;;;;;;;217.00;10.20;;;;;;;;;;4947299;28;20502;-69
2022/10/29 04:06:37;;;;;;;174.90;10.32;;;;;;;;;;4930259;29;20050;-70
2022/10/29 04:09:04;;;;;;;171.15;9.10;;;;;;;;;;4932111;29;20063;-70
2022/10/29 04:11:32;;;;;;;105.60;8.00;;;;;;;;;;4930670;29;20055;-69
2022/10/29 04:13:59;;;;;;;55.70;7.90;;;;;;;;;;4931096;29;20059;-69
2022/10/29 04:16:26;;;;;;;61.35;7.72;;;;;;;;;;4946243;29;20051;-68
2022/10/29 04:18:54;;;;;;;74.90;7.85;;;;;;;;;;4943927;29;20059;-70
2022/10/29 04:21:22;;;;;;;154.77;9.80;;;;;;;;;;4928692;29;20126;-69
2022/10/29 04:23:49;;;;;;;80.80;9.23;;;;;;;;;;4930307;29;20059;-69
2022/10/29 04:26:16;;;;;;;124.35;7.93;;;;;;;;;;4935928;29;20296;-70
2022/10/29 04:28:44;;;;;;;128.13;7.55;;;;;;;;;;4947433;29;20185;-70
2022/10/29 04:31:12;;;;;;;208.27;9.57;;;;;;;;;;4924931;29;20043;-70
2022/10/29 04:33:39;;;;;;;217.00;9.88;;;;;;;;;;4940374;29;20058;-69
2022/10/29 04:36:08;;;;;;;215.10;8.73;;;;;;;;;;4935666;29;20055;-69
2022/10/29 04:38:35;;;;;;;169.38;9.45;;;;;;;;;;4930970;29;20055;-69
2022/10/29 04:41:03;;;;;;;90.88;9.15;;;;;;;;;;4944547;28;20055;-69
2022/10/29 04:43:30;;;;;;;120.15;8.63;;;;;;;;;;4928469;29;20066;-69
2022/10/29 04:45:58;;;;;;;123.40;8.13;;;;;;;;;;4938060;29;20047;-70
2022/10/29 04:48:26;;;;;;;101.00;7.70;;;;;;;;;;4942573;29;20055;-69
2022/10/29 04:50:53;;;;;;;192.90;8.57;;;;;;;;;;4925291;29;20051;-69
2022/10/29 04:53:22;;;;;;;181.70;7.35;;;;;;;;;;4929622;29;20136;-69
2022/10/29 04:55:49;;;;;;;111.80;8.07;;;;;;;;;;4922852;29;20445;-69
2022/10/29 04:58:18;;;;;;;196.88;8.23;;;;;;;;;;4928339;29;20052;-68
2022/10/29 05:00:45;;;;;;;227.60;9.07;;;;;;;;;;4926564;29;20052;-70
2022/10/29 05:03:12;;;;;;;111.20;8.07;;;;;;;;;;4930749;28;20371;-69
2022/10/29 05:05:40;;;;;;;154.27;8.80;;;;;;;;;;4933685;29;20114;-71
2022/10/29 05:08:08;;;;;;;260.27;10.55;;;;;;;;;;4926855;29;20055;-69
2022/10/29 05:10:37;;;;;;;203.02;10.23;;;;;;;;;;4921611;29;20051;-69
2022/10/29 05:13:06;;;;;;;91.00;8.80;;;;;;;;;;4922834;29;20074;-69
2022/10/29 05:15:33;;;;;;;162.07;10.95;;;;;;;;;;4931972;29;20086;-70
2022/10/29 05:18:01;;;;;;;140.23;10.20;;;;;;;;;;4929276;29;20115;-69
2022/10/29 05:20:28;;;;;;;255.60;12.52;;;;;;;;;;4930466;29;20506;-70
2022/10/29 05:22:59;;;;;;;242.15;12.73;;;;;;;;;;4945492;29;20062;-69
2022/10/29 05:25:26;;;;;;;195.00;11.82;;;;;;;;;;4925287;29;20139;-68
2022/10/29 05:28:01;;;;;;;345.38;17.40;;;;;;;;;;4931731;29;20065;-70
2022/10/29 05:30:28;;;;;;;252.38;14.70;;;;;;;;;;4917781;29;20055;-69
2022/10/29 05:32:55;;;;;;;176.20;10.95;;;;;;;;;;4949162;29;20047;-69
2022/10/29 05:35:22;;;;;;;167.43;11.77;;;;;;;;;;4944376;29;20661;-69
2022/10/29 05:37:51;;;;;;;178.52;12.45;;;;;;;;;;4932764;29;20058;-71
2022/10/29 05:40:18;;;;;;;144.68;10.82;;;;;;;;;;4949148;29;20145;-69
2022/10/29 05:42:46;;;;;;;171.82;11.70;;;;;;;;;;4928979;29;20059;-70
2022/10/29 05:45:15;;;;;;;281.48;12.52;;;;;;;;;;4929702;29;20048;-70
2022/10/29 05:47:42;;;;;;;160.18;12.73;;;;;;;;;;4933048;29;20613;-69
2022/10/29 05:50:10;;;;;;;416.33;15.82;;;;;;;;;;4931725;29;20126;-69
2022/10/29 05:52:37;;;;;;;293.60;13.10;;;;;;;;;;4933016;29;20066;-68
2022/10/29 05:55:05;;;;;;;134.55;12.20;;;;;;;;;;4935150;29;20503;-68
2022/10/29 05:57:32;;;;;;;186.32;12.35;;;;;;;;;;4931573;29;20055;-69
2022/10/29 05:59:59;;;;;;;273.15;15.02;;;;;;;;;;4948993;29;20055;-70
2022/10/29 06:02:28;;;;;;;189.18;12.30;;;;;;;;;;4931866;29;20051;-72
2022/10/29 06:04:55;;;;;;;193.13;11.82;;;;;;;;;;4931610;29;20055;-69
2022/10/29 06:07:22;;;;;;;131.23;10.40;;;;;;;;;;4927827;29;20729;-69
2022/10/29 06:09:49;;;;;;;176.07;12.63;;;;;;;;;;4934283;29;20058;-70
2022/10/29 06:12:17;;;;;;;379.13;15.70;;;;;;;;;;4945784;29;20051;-69
2022/10/29 06:14:44;;;;;;;283.05;14.02;;;;;;;;;;4929564;29;20506;-68
2022/10/29 06:17:11;;;;;;;114.05;11.43;;;;;;;;;;4922327;29;20044;-70
2022/10/29 06:19:40;;;;;;;309.48;16.08;;;;;;;;;;4927553;29;20066;-69
2022/10/29 06:22:07;;;;;;;105.55;10.93;;;;;;;;;;4944420;29;20058;-69
2022/10/29 06:24:34;;;;;;;249.95;13.38;;;;;;;;;;4927587;29;20761;-70
2022/10/29 06:27:01;;;;;;;88.20;11.50;;;;;;;;;;4928674;29;20053;-69
2022/10/29 06:29:29;;;;;;;182.57;14.20;;;;;;;;;;4928999;29;20058;-69
2022/10/29 06:31:56;;;;;;;272.67;14.02;;;;;;;;;;4930213;29;20055;-69
2022/10/29 06:34:23;;;;;;;106.40;12.18;;;;;;;;;;4944233;29;20403;-69
2022/10/29 06:36:52;;;;;;;208.27;14.23;;;;;;;;;;4922695;29;20061;-71
2022/10/29 06:39:19;;;;;;;250.20;12.85;;;;;;;;;;4939534;29;20058;-70
2022/10/29 06:41:46;;;;;;;145.38;9.98;;;;;;;;;;4938998;29;20062;-69
2022/10/29 06:44:13;;;;;;;238.10;12.68;;;;;;;;;;4926161;29;20055;-69
2022/10/29 06:46:41;;;;;;;234.13;11.80;;;;;;;;;;4919748;29;20051;-70
2022/10/29 06:49:08;;;;;;;157.73;9.93;;;;;;;;;;4942445;29;20121;-70
2022/10/29 06:51:35;;;;;;;153.98;10.15;;;;;;;;;;4941827;29;20052;-71
2022/10/29 06:54:04;;;;;;;233.88;12.85;;;;;;;;;;4928050;29;20062;-69
2022/10/29 06:56:32;;;;;;;142.48;11.50;;;;;;;;;;4938532;28;20054;-70
2022/10/29 06:58:59;;;;;;;183.40;13.25;;;;;;;;;;4939665;29;20052;-69
2022/10/29 07:01:27;;;;;;;161.93;15.05;;;;;;;;;;4920564;29;20051;-70
2022/10/29 07:03:55;;;;;;;99.63;12.13;;;;;;;;;;4923213;29;20062;-69
2022/10/29 07:06:22;;;;;;;115.88;13.00;;;;;;;;;;4922546;29;21517;-71
2022/10/29 07:08:49;;;;;;;145.88;12.32;;;;;;;;;;4923086;29;20063;-70
2022/10/29 07:11:18;;;;;;;188.80;14.50;;;;;;;;;;4935143;28;20059;-71
2022/10/29 07:13:45;;;;;;;107.00;10.18;;;;;;;;;;4925964;29;20051;-69
2022/10/29 07:16:12;;;;;;;174.68;12.52;;;;;;;;;;4930870;29;20126;-69
2022/10/29 07:18:40;;;;;;;212.50;12.07;;;;;;;;;;4941642;29;20055;-70
2022/10/29 07:21:08;;;;;;;275.30;13.98;;;;;;;;;;4942223;29;20043;-70
2022/10/29 07:23:35;;;;;;;178.95;12.40;;;;;;;;;;4919917;29;20075;-71
2022/10/29 07:26:02;;;;;;;248.60;13.65;;;;;;;;;;4928836;29;20066;-70
2022/10/29 07:28:31;;;;;;;176.10;13.50;;;;;;;;;;4919308;29;20052;-70
2022/10/29 07:31:00;;;;;;;154.57;13.85;;;;;;;;;;4926086;29;20090;-69
2022/10/29 07:33:28;;;;;;;106.85;13.32;;;;;;;;;;4930010;29;20074;-70
2022/10/29 07:35:57;;;;;;;77.93;11.82;;;;;;;;;;4926870;29;20126;-70
2022/10/29 07:38:24;;;;;;;143.02;13.60;;;;;;;;;;4944942;29;20055;-71
2022/10/29 07:40:51;;;;;;;78.28;11.98;;;;;;;;;;4928909;29;20517;-70
2022/10/29 07:43:19;;;;;;;61.90;11.75;;;;;;;;;;4927531;29;20075;-69
2022/10/29 07:45:49;;;;;;;186.60;13.00;;;;;;;;;;4927646;29;20047;-69
2022/10/29 07:48:16;;;;;;;172.57;13.23;;;;;;;;;;4928477;29;20067;-70
2022/10/29 07:50:44;;;;;;;171.73;13.32;;;;;;;;;;4931354;29;20055;-69
2022/10/29 07:53:11;;;;;;;142.82;13.00;;;;;;;;;;4925755;29;20525;-69
2022/10/29 07:55:38;;;;;;;151.75;14.18;;;;;;;;;;4920092;29;20047;-70
2022/10/29 07:58:07;;;;;;;285.42;17.48;;;;;;;;;;4919395;29;20059;-70
2022/10/29 08:00:35;;;;;;;163.32;16.52;;;;;;;;;;4921000;29;20410;-70
2022/10/29 08:03:04;;;;;;;81.03;13.52;;;;;;;;;;4926219;28;20114;-70
2022/10/29 08:05:31;;;;;;;161.57;16.95;;;;;;;;;;4924714;29;20059;-70
2022/10/29 08:07:59;;;;;;;102.28;14.75;;;;;;;;;;4927218;29;20822;-70
2022/10/29 08:10:26;;;;;;;237.98;16.98;;;;;;;;;;4919751;29;20052;-71
2022/10/29 08:12:54;;;;;;;262.02;16.17;;;;;;;;;;4940345;29;20054;-69
2022/10/29 08:15:21;;;;;;;142.75;14.48;;;;;;;;;;4923128;29;20059;-69
2022/10/29 08:17:49;;;;;;;242.32;15.60;;;;;;;;;;4933848;29;20056;-70
2022/10/29 08:20:18;;;;;;;170.95;15.68;;;;;;;;;;4928449;29;20066;-70
2022/10/29 08:22:45;;;;;;;168.57;13.93;;;;;;;;;;4931211;29;20102;-71
2022/10/29 08:25:13;;;;;;;164.02;16.75;;;;;;;;;;4929974;29;20054;-71
2022/10/29 08:27:40;;;;;;;163.38;16.00;;;;;;;;;;4943429;29;20062;-71
2022/10/29 08:30:09;;;;;;;86.45;16.77;;;;;;;;;;4917066;29;20052;-70
2022/10/29 08:32:36;;;;;;;104.90;15.38;;;;;;;;;;4934920;29;20070;-70
2022/10/29 08:35:03;;;;;;;74.35;14.98;;;;;;;;;;4919932;29;20067;-69
2022/10/29 08:37:32;;;;;;;140.35;17.48;;;;;;;;;;4919134;29;20063;-70
2022/10/29 08:39:59;;;;;;;125.18;18.70;;;;;;;;;;4922335;29;20055;-71
2022/10/29 08:42:37;;;;;;;117.25;19.30;;;;;;;;;;4927430;29;20533;-70
2022/10/29 08:45:10;;;;;;;85.45;19.40;;;;;;;;;;4945968;29;20066;-72
2022/10/29 08:47:43;;;;;;;78.15;19.55;;;;;;;;;;4927941;29;20067;-70
2022/10/29 08:50:10;;;;;;;;;;;;;;;;;;4930832;29;20055;-69
2022/10/29 08:52:40;;;;;;;85.30;21.70;;;;;;;;;;4930311;29;19982;-69
2022/10/29 08:55:13;;;;;;;73.30;20.08;;;;;;;;;;4936026;29;20529;-69
2022/10/29 08:57:43;;;;;;;72.50;21.30;;;;;;;;;;4930866;29;20063;-70
2022/10/29 09:00:15;;;;;;;76.57;20.85;;;;;;;;;;4931377;29;20051;-70
2022/10/29 09:02:42;;;;;;;103.15;23.67;;;;;;;;;;4931286;29;20054;-69
2022/10/29 09:05:13;;;;;;;68.55;22.45;;;;;;;;;;4950607;28;20865;-70
2022/10/29 09:07:47;;;;;;;75.47;22.80;;;;;;;;;;4931798;29;20062;-70
2022/10/29 09:10:20;;;;;;;83.82;23.70;;;;;;;;;;4933509;29;20058;-70
2022/10/29 09:12:53;;;;;;;82.72;24.85;;;;;;;;;;4930515;29;20051;-70
2022/10/29 09:15:30;;;;;;;89.07;24.60;;;;;;;;;;4943919;29;20058;-69
2022/10/29 09:18:07;;;;;;;85.38;25.50;;;;;;;;;;4933939;29;20568;-69
2022/10/29 09:20:40;;;;;;;103.00;27.85;;;;;;;;;;4933725;29;20065;-70
2022/10/29 09:23:13;;;;;;;84.72;25.95;;;;;;;;;;4931210;29;20070;-70
2022/10/29 09:25:45;;;;;;;87.70;26.50;;;;;;;;;;4928029;29;20055;-69
2022/10/29 09:28:17;;;;;;;79.40;26.02;;;;;;;;;;4947996;29;20062;-69
2022/10/29 09:30:52;;;;;;;99.07;28.05;;;;;;;;;;4931499;29;20054;-70
2022/10/29 09:33:20;;;;;;;80.15;28.55;;;;;;;;;;4943359;29;20062;-70
2022/10/29 09:35:48;;;;;;;77.25;27.40;;;;;;;;;;4929017;29;20655;-70
2022/10/29 09:38:18;;;;;;;99.20;28.52;;;;;;;;;;4931343;29;20052;-70
2022/10/29 09:40:46;;;;;;;82.50;27.95;;;;;;;;;;4932859;29;20082;-70
2022/10/29 09:43:17;;;;;;;81.93;28.17;;;;;;;;;;4929548;29;20495;-71
2022/10/29 09:45:47;;;;;;;87.03;28.23;;;;;;;;;;4932569;29;20699;-70
2022/10/29 09:48:17;;;;;;;84.85;28.27;;;;;;;;;;4930369;29;20082;-70
2022/10/29 09:50:48;;;;;;;77.03;27.30;;;;;;;;;;4930398;29;20529;-69
2022/10/29 09:53:17;;;;;;;69.90;27.00;;;;;;;;;;4932358;29;20616;-70
2022/10/29 09:55:45;;;;;;;60.67;23.83;;;;;;;;;;4949305;29;20054;-69
2022/10/29 09:58:17;;;;;;;63.75;24.60;;;;;;;;;;4929183;29;20066;-69
2022/10/29 10:00:44;;;;;;;54.60;24.42;;;;;;;;;;4935282;29;20058;-71
2022/10/29 10:03:14;;;;;;;61.75;23.20;;;;;;;;;;4931454;28;20051;-71
2022/10/29 10:05:57;;;;;;;60.17;23.17;;;;;;;;;;4932219;29;20058;-71
2022/10/29 10:08:25;;;;;;;60.30;23.00;;;;;;;;;;4929747;29;20907;-70
2022/10/29 10:10:54;;;;;;;53.33;21.58;;;;;;;;;;4932657;29;20078;-69
2022/10/29 10:13:22;;;;;;;48.88;20.58;;;;;;;;;;4941609;29;21169;-72
2022/10/29 10:15:51;;;;;;;46.38;21.08;;;;;;;;;;4928064;29;20204;-71
2022/10/29 10:18:20;;;;;;;45.65;20.08;;;;;;;;;;4933412;29;20582;-72
2022/10/29 10:20:48;;;;;;;50.85;21.13;;;;;;;;;;4949346;29;20550;-73
2022/10/29 10:23:20;;;;;;;46.33;18.00;;;;;;;;;;4931926;29;20055;-72
2022/10/29 10:25:49;;;;;;;43.55;18.10;;;;;;;;;;4944535;29;20050;-72
2022/10/29 10:28:17;;;;;;;47.90;17.92;;;;;;;;;;4934654;29;20055;-72
2022/10/29 10:30:45;;;;;;;40.13;18.70;;;;;;;;;;4935842;29;20054;-72
2022/10/29 10:33:22;;;;;;;40.67;17.88;;;;;;;;;;4929597;29;20047;-72
2022/10/29 10:35:50;;;;;;;45.50;18.30;;;;;;;;;;4930764;29;20059;-72
2022/10/29 10:38:17;;;;;;;40.70;17.30;;;;;;;;;;4932859;29;20722;-72
2022/10/29 10:40:44;;;;;;;40.00;17.10;;;;;;;;;;4934549;29;20059;-72
2022/10/29 10:43:20;;;;;;;38.47;16.65;;;;;;;;;;4925105;29;20619;-72
2022/10/29 10:45:52;;;;;;;34.63;15.52;;;;;;;;;;4931287;29;20391;-72
2022/10/29 10:48:20;;;;;;;38.23;16.50;;;;;;;;;;4931174;29;20059;-72
2022/10/29 10:50:47;;;;;;;47.22;18.08;;;;;;;;;;4932457;29;20303;-72
2022/10/29 10:53:17;;;;;;;46.78;18.38;;;;;;;;;;4931936;29;20439;-72
2022/10/29 10:55:47;;;;;;;46.45;20.10;;;;;;;;;;4931735;29;20055;-72
2022/10/29 10:58:18;;;;;;;42.30;19.70;;;;;;;;;;4931369;29;20055;-72
2022/10/29 11:00:49;;;;;;;38.22;17.75;;;;;;;;;;4926553;29;20070;-72
2022/10/29 11:03:20;;;;;;;36.13;17.60;;;;;;;;;;4934124;28;20066;-72
2022/10/29 11:05:49;;;;;;;34.95;16.17;;;;;;;;;;4947601;29;20134;-72
2022/10/29 11:08:19;;;;;;;30.00;14.57;;;;;;;;;;4934599;29;20502;-72
2022/10/29 11:10:50;;;;;;;31.63;15.25;;;;;;;;;;4933283;29;20055;-72
2022/10/29 11:13:19;;;;;;;34.20;14.77;;;;;;;;;;4947758;29;20129;-72
2022/10/29 11:15:50;;;;;;;34.63;15.82;;;;;;;;;;4931835;29;20055;-72
2022/10/29 11:18:19;;;;;;;31.35;14.48;;;;;;;;;;4941858;29;20542;-72
2022/10/29 11:20:50;;;;;;;39.13;16.92;;;;;;;;;;4931494;29;20143;-72
2022/10/29 11:23:26;;;;;;;40.60;15.98;;;;;;;;;;4930679;29;20043;-72
2022/10/29 11:25:55;;;;;;;37.78;16.27;;;;;;;;;;4923941;29;20059;-72
2022/10/29 11:28:26;;;;;;;32.50;14.80;;;;;;;;;;4921982;29;20051;-72
2022/10/29 11:30:59;;;;;;;32.08;15.55;;;;;;;;;;4924047;29;20059;-72
2022/10/29 11:33:31;;;;;;;34.63;13.68;;;;;;;;;;4941131;29;20111;-72
2022/10/29 11:36:02;;;;;;;35.72;13.93;;;;;;;;;;4941688;29;20058;-72
2022/10/29 11:38:32;;;;;;;36.45;15.85;;;;;;;;;;4930911;29;20071;-72
2022/10/29 11:41:03;;;;;;;32.70;15.65;;;;;;;;;;4930686;29;20059;-72
2022/10/29 11:43:31;;;;;;;32.22;14.30;;;;;;;;;;4930041;29;20589;-72
2022/10/29 11:46:03;;;;;;;37.80;14.48;;;;;;;;;;4944296;29;20042;-72
2022/10/29 11:48:44;;;;;;;36.50;14.45;;;;;;;;;;4947638;29;20402;-72
2022/10/29 11:51:17;;;;;;;30.67;13.77;;;;;;;;;;4946733;29;20051;-72
2022/10/29 11:53:55;;;;;;;34.83;14.82;;;;;;;;;;4932055;29;20051;-73
2022/10/29 11:56:26;;;;;;;27.75;14.27;;;;;;;;;;4929056;29;20086;-73
2022/10/29 11:58:58;;;;;;;32.45;13.55;;;;;;;;;;4930995;29;20573;-72
2022/10/29 12:01:30;;;;;;;34.65;15.18;;;;;;;;;;4947589;29;20051;-72
2022/10/29 12:04:06;;;;;;;31.60;15.05;;;;;;;;;;4933891;28;20055;-72
2022/10/29 12:06:36;;;;;;;34.25;15.68;;;;;;;;;;4931600;29;20059;-72
2022/10/29 12:09:10;;;;;;;32.47;14.50;;;;;;;;;;4947017;29;20051;-72
2022/10/29 12:11:41;;;;;;;32.03;16.23;;;;;;;;;;4930306;29;20414;-72
2022/10/29 12:14:19;;;;;;;32.05;14.88;;;;;;;;;;4947278;29;20471;-72
2022/10/29 12:16:52;;;;;;;32.40;15.25;;;;;;;;;;4943793;29;20055;-72
2022/10/29 12:19:27;;;;;;;24.52;12.73;;;;;;;;;;4923559;29;20406;-73
2022/10/29 12:21:57;;;;;;;33.20;12.93;;;;;;;;;;4941237;28;20723;-72
2022/10/29 12:24:49;;;;;;;26.35;12.40;;;;;;;;;;4940495;29;20063;-72
2022/10/29 12:27:20;;;;;;;30.23;13.23;;;;;;;;;;4941155;29;20521;-72
2022/10/29 12:29:51;;;;;;;26.83;12.10;;;;;;;;;;4922514;29;20060;-72
2022/10/29 12:32:22;;;;;;;25.35;12.07;;;;;;;;;;4942065;29;20043;-72
2022/10/29 12:34:52;;;;;;;21.67;11.88;;;;;;;;;;4923724;29;20071;-72
2022/10/29 12:37:24;;;;;;;32.10;12.68;;;;;;;;;;4935279;29;20752;-72
2022/10/29 12:39:56;;;;;;;25.67;12.07;;;;;;;;;;4922364;29;20078;-72
2022/10/29 12:42:24;;;;;;;25.75;12.32;;;;;;;;;;4930613;29;20121;-72
2022/10/29 12:44:57;;;;;;;33.92;13.65;;;;;;;;;;4945570;29;20051;-72
2022/10/29 12:47:30;;;;;;;32.90;12.27;;;;;;;;;;4926911;29;20063;-72
2022/10/29 12:49:57;;;;;;;;;;;;;;;;;;4930884;29;20058;-72
2022/10/29 12:52:29;;;;;;;28.02;12.48;;;;;;;;;;4931178;29;19954;-72
2022/10/29 12:54:56;;;;;;;35.17;12.95;;;;;;;;;;4945794;29;20077;-72
2022/10/29 12:57:29;;;;;;;35.13;15.40;;;;;;;;;;4924859;29;20066;-72
2022/10/29 12:59:57;;;;;;;30.17;13.67;;;;;;;;;;4928980;29;20055;-72
2022/10/29 13:02:44;;;;;;;32.25;12.88;;;;;;;;;;4923246;29;20060;-72
2022/10/29 13:05:36;;;;;;;27.05;12.07;;;;;;;;;;4932496;29;20158;-72
2022/10/29 13:08:11;;;;;;;29.30;13.20;;;;;;;;;;4932623;29;20106;-72
2022/10/29 13:10:55;;;;;;;30.90;13.15;;;;;;;;;;4942541;29;20055;-72
2022/10/29 13:13:22;;;;;;;;;;;;;;;;;;4928226;29;20101;-72
2022/10/29 13:15:51;;;;;;;25.17;11.13;;;;;;;;;;4932085;29;20259;-73
2022/10/29 13:18:22;;;;;;;26.85;11.63;;;;;;;;;;4919258;29;20059;-72
2022/10/29 13:20:50;;;;;;;23.92;11.32;;;;;;;;;;4932031;29;20062;-72
2022/10/29 13:23:33;;;;;;;23.25;11.50;;;;;;;;;;4928360;29;20055;-72
2022/10/29 13:26:02;;;;;;;28.27;11.43;;;;;;;;;;4941859;29;20114;-72
2022/10/29 13:28:48;;;;;;;24.10;10.90;;;;;;;;;;4924130;29;20861;-72
2022/10/29 13:31:34;;;;;;;24.85;11.15;;;;;;;;;;4925166;29;20046;-72
2022/10/29 13:34:02;;;;;;;23.40;10.80;;;;;;;;;;4923684;29;20055;-72
2022/10/29 13:36:37;;;;;;;23.95;11.15;;;;;;;;;;4930038;29;20454;-72
2022/10/29 13:39:17;;;;;;;25.80;11.15;;;;;;;;;;4929385;29;20065;-72
2022/10/29 13:41:49;;;;;;;26.50;10.93;;;;;;;;;;4950523;29;20098;-72
2022/10/29 13:44:19;;;;;;;23.70;10.15;;;;;;;;;;4947414;29;20055;-72
2022/10/29 13:46:47;;;;;;;22.23;10.70;;;;;;;;;;4935532;29;20581;-72
2022/10/29 13:49:21;;;;;;;27.38;9.57;;;;;;;;;;4948910;29;20047;-72
2022/10/29 13:52:06;;;;;;;26.77;9.80;;;;;;;;;;4930477;29;20051;-72
2022/10/29 13:54:40;;;;;;;25.55;10.50;;;;;;;;;;4943737;29;20052;-72
2022/10/29 13:57:14;;;;;;;26.73;9.88;;;;;;;;;;4947425;29;20812;-72
2022/10/29 13:59:43;;;;;;;28.15;9.82;;;;;;;;;;4944912;29;20055;-71
2022/10/29 14:02:26;;;;;;;24.85;9.77;;;;;;;;;;4928944;29;20062;-72
2022/10/29 14:04:56;;;;;;;24.63;10.10;;;;;;;;;;4929056;29;20055;-72
2022/10/29 14:07:29;;;;;;;23.60;10.23;;;;;;;;;;4927215;29;20051;-72
2022/10/29 14:09:59;;;;;;;26.17;10.43;;;;;;;;;;4947554;29;20097;-71
2022/10/29 14:12:28;;;;;;;20.67;9.57;;;;;;;;;;4949151;29;20706;-72
2022/10/29 14:14:58;;;;;;;24.75;9.57;;;;;;;;;;4931872;29;20058;-72
2022/10/29 14:17:25;;;;;;;19.90;10.13;;;;;;;;;;4932324;29;20051;-71
2022/10/29 14:19:54;;;;;;;23.65;9.95;;;;;;;;;;4946092;29;20059;-72
2022/10/29 14:22:32;;;;;;;21.38;9.77;;;;;;;;;;4948207;29;20063;-72
2022/10/29 14:25:00;;;;;;;27.85;9.70;;;;;;;;;;4943670;29;20054;-72
2022/10/29 14:27:27;;;;;;;27.58;10.10;;;;;;;;;;4941574;29;20098;-72
2022/10/29 14:30:09;;;;;;;26.70;10.82;;;;;;;;;;4926592;29;20142;-72